createdAt,value
2018-02-21T12:00:08.580Z,5.80
2018-02-21T12:02:36.142Z,5.78
2018-02-21T12:05:03.635Z,3.37
2018-02-21T12:07:31.127Z,2.80
2018-02-21T12:09:58.623Z,3.00
2018-02-21T12:12:26.123Z,3.05
2018-02-21T12:14:53.768Z,3.33
2018-02-21T12:17:21.289Z,3.33
2018-02-21T12:19:48.935Z,4.00
2018-02-21T12:22:16.423Z,4.45
2018-02-21T12:24:43.911Z,5.00
2018-02-21T12:27:11.564Z,4.43
2018-02-21T12:29:39.131Z,4.30
2018-02-21T12:32:09.205Z,4.78
2018-02-21T12:34:36.728Z,4.65
2018-02-21T12:37:04.261Z,5.20
2018-02-21T12:39:35.372Z,4.65
2018-02-21T12:42:02.863Z,4.90
2018-02-21T12:44:30.359Z,4.80
2018-02-21T12:46:57.874Z,4.45
2018-02-21T12:49:25.370Z,4.80
2018-02-21T12:51:52.892Z,4.50
2018-02-21T12:54:20.380Z,4.57
2018-02-21T12:56:47.873Z,4.47
2018-02-21T12:59:15.379Z,4.53
2018-02-21T13:01:42.867Z,4.97
2018-02-21T13:04:10.350Z,4.50
2018-02-21T13:06:37.828Z,4.97
2018-02-21T13:09:05.338Z,5.17
2018-02-21T13:11:32.869Z,5.10
2018-02-21T13:14:00.394Z,5.30
2018-02-21T13:16:27.907Z,4.83
2018-02-21T13:18:55.396Z,5.23
2018-02-21T13:21:22.883Z,4.70
2018-02-21T13:23:50.393Z,4.70
2018-02-21T13:26:17.899Z,4.20
2018-02-21T13:28:45.459Z,3.60
2018-02-21T13:31:12.984Z,3.70
2018-02-21T13:33:40.471Z,3.03
2018-02-21T13:36:07.976Z,3.53
2018-02-21T13:38:35.502Z,4.00
2018-02-21T13:41:02.995Z,5.13
2018-02-21T13:43:30.487Z,5.13
2018-02-21T13:45:57.977Z,5.97
2018-02-21T13:48:25.459Z,5.77
2018-02-21T13:50:52.980Z,5.50
2018-02-21T13:53:20.491Z,5.73
2018-02-21T13:55:47.996Z,6.10
2018-02-21T13:58:15.530Z,5.87
2018-02-21T14:00:43.037Z,5.90
2018-02-21T14:03:10.545Z,6.47
2018-02-21T14:05:38.111Z,7.10
2018-02-21T14:08:05.680Z,6.97
2018-02-21T14:10:33.228Z,6.40
2018-02-21T14:13:00.730Z,5.87
2018-02-21T14:15:28.220Z,6.30
2018-02-21T14:17:55.779Z,6.10
2018-02-21T14:20:23.282Z,6.30
2018-02-21T14:22:50.780Z,5.70
2018-02-21T14:25:18.275Z,5.67
2018-02-21T14:27:45.779Z,6.10
2018-02-21T14:30:13.267Z,5.87
2018-02-21T14:32:40.761Z,6.73
2018-02-21T14:35:08.252Z,6.87
2018-02-21T14:37:35.748Z,6.50
2018-02-21T14:40:03.269Z,7.10
2018-02-21T14:42:30.791Z,7.30
2018-02-21T14:44:58.343Z,7.43
2018-02-21T14:47:25.841Z,5.50
2018-02-21T14:49:53.343Z,5.27
2018-02-21T14:52:20.848Z,5.60
2018-02-21T14:54:48.319Z,6.47
2018-02-21T14:57:23.168Z,6.37
2018-02-21T14:59:50.646Z,7.60
2018-02-21T15:02:18.150Z,7.03
2018-02-21T15:04:45.655Z,6.77
2018-02-21T15:07:13.137Z,6.47
2018-02-21T15:09:40.616Z,6.67
2018-02-21T15:12:08.128Z,6.53
2018-02-21T15:14:35.618Z,6.40
2018-02-21T15:17:03.110Z,6.50
2018-02-21T15:19:30.599Z,6.57
2018-02-21T15:21:58.083Z,6.80
2018-02-21T15:24:25.586Z,6.33
2018-02-21T15:26:53.077Z,6.90
2018-02-21T15:29:20.624Z,6.53
2018-02-21T15:31:48.152Z,6.43
2018-02-21T15:34:15.657Z,6.40
2018-02-21T15:36:43.157Z,7.03
2018-02-21T15:39:10.642Z,7.23
2018-02-21T15:41:38.129Z,6.30
2018-02-21T15:44:05.622Z,6.43
2018-02-21T15:46:33.140Z,6.63
2018-02-21T15:49:00.636Z,7.40
2018-02-21T15:51:28.120Z,8.33
2018-02-21T15:53:55.623Z,7.57
2018-02-21T15:56:23.108Z,7.10
2018-02-21T15:58:50.622Z,6.73
2018-02-21T16:01:18.112Z,6.80
2018-02-21T16:03:45.590Z,7.27
2018-02-21T16:06:13.072Z,8.20
2018-02-21T16:08:40.582Z,9.50
2018-02-21T16:11:08.110Z,11.47
2018-02-21T16:13:35.624Z,9.27
2018-02-21T16:16:03.133Z,8.63
2018-02-21T16:18:30.623Z,8.63
2018-02-21T16:20:58.150Z,10.80
2018-02-21T16:23:25.660Z,10.50
2018-02-21T16:25:53.202Z,10.83
2018-02-21T16:28:20.683Z,10.20
2018-02-21T16:30:48.208Z,10.63
2018-02-21T16:33:15.694Z,10.07
2018-02-21T16:35:43.255Z,11.03
2018-02-21T16:38:10.781Z,10.90
2018-02-21T16:40:38.309Z,10.07
2018-02-21T16:43:05.847Z,10.00
2018-02-21T16:45:33.396Z,10.57
2018-02-21T16:48:00.919Z,10.97
2018-02-21T16:50:28.519Z,11.20
2018-02-21T16:52:56.021Z,10.93
2018-02-21T16:55:23.531Z,11.63
2018-02-21T16:57:51.045Z,11.90
2018-02-21T17:00:19.024Z,12.70
2018-02-21T17:02:54.113Z,11.87
2018-02-21T17:05:21.661Z,12.27
2018-02-21T17:07:49.166Z,13.03
2018-02-21T17:10:16.707Z,12.77
2018-02-21T17:12:44.205Z,12.77
2018-02-21T17:15:11.727Z,13.77
2018-02-21T17:17:39.228Z,17.93
2018-02-21T17:20:06.780Z,18.30
2018-02-21T17:22:34.287Z,16.50
2018-02-21T17:25:01.797Z,14.73
2018-02-21T17:27:29.318Z,15.83
2018-02-21T17:29:56.852Z,17.40
2018-02-21T17:32:24.412Z,16.45
2018-02-21T17:34:51.948Z,15.53
2018-02-21T17:37:19.459Z,17.77
2018-02-21T17:39:46.975Z,15.02
2018-02-21T17:44:56.507Z,16.23
2018-02-21T17:47:24.000Z,16.08
2018-02-21T17:49:51.498Z,17.40
2018-02-21T17:52:19.001Z,18.20
2018-02-21T17:54:46.514Z,17.23
2018-02-21T17:57:14.094Z,18.10
2018-02-21T17:59:41.630Z,16.83
2018-02-21T18:02:09.140Z,18.08
2018-02-21T18:04:36.664Z,17.62
2018-02-21T18:07:04.146Z,17.62
2018-02-21T18:09:31.655Z,17.90
2018-02-21T18:11:59.147Z,17.75
2018-02-21T18:14:26.657Z,18.58
2018-02-21T18:16:54.138Z,19.15
2018-02-21T18:19:21.634Z,18.42
2018-02-21T18:21:50.537Z,16.23
2018-02-21T18:24:18.049Z,16.75
2018-02-21T18:26:45.566Z,16.17
2018-02-21T18:29:13.111Z,18.50
2018-02-21T18:31:40.619Z,19.27
2018-02-21T18:34:08.159Z,17.95
2018-02-21T18:36:35.674Z,16.98
2018-02-21T18:39:03.205Z,18.42
2018-02-21T18:41:30.707Z,18.55
2018-02-21T18:43:58.216Z,19.50
2018-02-21T18:46:25.702Z,17.67
2018-02-21T18:48:53.383Z,16.92
2018-02-21T18:51:20.890Z,17.35
2018-02-21T18:53:48.375Z,16.92
2018-02-21T18:56:15.874Z,18.05
2018-02-21T18:58:43.371Z,17.80
2018-02-21T19:01:10.922Z,18.65
2018-02-21T19:03:38.410Z,19.70
2018-02-21T19:06:06.023Z,21.17
2018-02-21T19:08:33.641Z,21.37
2018-02-21T19:11:01.272Z,20.00
2018-02-21T19:13:28.833Z,19.85
2018-02-21T19:15:56.320Z,19.92
2018-02-21T19:18:23.902Z,24.70
2018-02-21T19:20:51.411Z,23.08
2018-02-21T19:23:18.900Z,21.27
2018-02-21T19:25:46.413Z,21.02
2018-02-21T19:28:13.904Z,20.20
2018-02-21T19:30:41.435Z,19.08
2018-02-21T19:33:08.955Z,17.20
2018-02-21T19:35:36.455Z,21.50
2018-02-21T19:38:03.939Z,19.65
2018-02-21T19:40:31.443Z,19.87
2018-02-21T19:42:58.930Z,19.92
2018-02-21T19:45:26.500Z,20.58
2018-02-21T19:47:54.001Z,20.30
2018-02-21T19:50:21.502Z,19.92
2018-02-21T19:52:48.983Z,19.05
2018-02-21T19:55:16.486Z,19.12
2018-02-21T19:57:44.008Z,17.50
2018-02-21T20:00:11.516Z,15.75
2018-02-21T20:02:39.075Z,16.05
2018-02-21T20:05:06.618Z,13.90
2018-02-21T20:07:34.172Z,17.10
2018-02-21T20:10:01.684Z,18.58
2018-02-21T20:12:29.176Z,19.85
2018-02-21T20:14:56.699Z,19.58
2018-02-21T20:17:24.190Z,18.02
2018-02-21T20:19:51.692Z,18.33
2018-02-21T20:22:19.189Z,18.15
2018-02-21T20:24:46.687Z,16.15
2018-02-21T20:27:14.181Z,16.15
2018-02-21T20:29:41.675Z,16.55
2018-02-21T20:32:09.181Z,16.10
2018-02-21T20:34:36.655Z,15.10
2018-02-21T20:37:04.143Z,14.63
2018-02-21T20:39:31.645Z,15.57
2018-02-21T20:41:59.151Z,18.58
2018-02-21T20:44:26.646Z,18.33
2018-02-21T20:46:54.143Z,18.02
2018-02-21T20:49:21.625Z,17.73
2018-02-21T20:51:49.128Z,17.40
2018-02-21T20:54:16.619Z,17.83
2018-02-21T20:56:44.117Z,17.40
2018-02-21T20:59:11.610Z,20.33
2018-02-21T21:01:39.135Z,32.50
2018-02-21T21:04:06.615Z,19.30
2018-02-21T21:06:34.133Z,14.85
2018-02-21T21:09:01.616Z,15.52
2018-02-21T21:11:29.128Z,13.85
2018-02-21T21:13:56.624Z,14.80
2018-02-21T21:16:24.124Z,15.75
2018-02-21T21:18:51.623Z,17.17
2018-02-21T21:21:19.134Z,16.08
2018-02-21T21:23:46.615Z,16.98
2018-02-21T21:26:14.110Z,17.05
2018-02-21T21:28:41.615Z,15.75
2018-02-21T21:31:09.143Z,13.68
2018-02-21T21:33:36.654Z,13.85
2018-02-21T21:36:04.144Z,13.65
2018-02-21T21:38:31.663Z,12.18
2018-02-21T21:40:59.164Z,12.07
2018-02-21T21:43:26.660Z,12.20
2018-02-21T21:45:54.183Z,12.35
2018-02-21T21:48:21.695Z,12.57
2018-02-21T21:50:49.219Z,15.25
2018-02-21T21:53:16.699Z,13.73
2018-02-21T21:55:44.183Z,15.15
2018-02-21T21:58:11.674Z,14.13
2018-02-21T22:00:39.160Z,12.60
2018-02-21T22:03:06.647Z,11.43
2018-02-21T22:05:34.165Z,10.82
2018-02-21T22:08:01.665Z,10.90
2018-02-21T22:10:29.153Z,10.77
2018-02-21T22:12:56.644Z,10.85
2018-02-21T22:15:24.142Z,12.73
2018-02-21T22:17:51.627Z,16.40
2018-02-21T22:20:19.129Z,15.30
2018-02-21T22:22:46.696Z,14.38
2018-02-21T22:25:14.195Z,12.68
2018-02-21T22:27:41.675Z,13.10
2018-02-21T22:30:09.169Z,13.20
2018-02-21T22:32:36.680Z,13.00
2018-02-21T22:35:04.186Z,13.93
2018-02-21T22:37:31.691Z,13.10
2018-02-21T22:39:59.179Z,12.57
2018-02-21T22:42:26.672Z,13.85
2018-02-21T22:44:54.196Z,13.60
2018-02-21T22:47:21.650Z,13.45
2018-02-21T22:49:49.172Z,12.75
2018-02-21T22:52:16.650Z,12.60
2018-02-21T22:54:44.149Z,12.10
2018-02-21T22:57:11.651Z,12.00
2018-02-21T22:59:39.144Z,12.82
2018-02-21T23:02:06.656Z,13.18
2018-02-21T23:04:34.145Z,12.60
2018-02-21T23:07:01.656Z,14.43
2018-02-21T23:09:29.157Z,13.55
2018-02-21T23:11:56.657Z,13.82
2018-02-21T23:14:24.136Z,14.20
2018-02-21T23:16:51.643Z,16.67
2018-02-21T23:19:19.144Z,16.33
2018-02-21T23:21:46.638Z,15.43
2018-02-21T23:24:14.127Z,17.45
2018-02-21T23:26:41.750Z,16.65
2018-02-21T23:29:09.243Z,16.77
2018-02-21T23:31:36.735Z,17.25
2018-02-21T23:34:04.228Z,16.45
2018-02-21T23:36:31.719Z,18.08
2018-02-21T23:39:00.201Z,18.92
2018-02-21T23:41:27.693Z,19.45
2018-02-21T23:43:55.197Z,19.42
2018-02-21T23:46:22.679Z,21.95
2018-02-21T23:48:50.173Z,19.05
2018-02-21T23:51:17.675Z,18.37
2018-02-21T23:53:45.183Z,17.70
2018-02-21T23:56:12.687Z,18.90
2018-02-21T23:58:40.220Z,18.77
